Time;durP1;ratioP1;P1;durP2;ratioP2;P2;SDS_P1;SDS_P2;PMS_P1;PMS_P2;Temp;Humidity;BMP_temperature;BMP_pressure;BME280_temperature;BME280_humidity;BME280_pressure;Samples;Min_cycle;Max_cycle;Signal;HPM_P1;HPM_P2
2023/10/07 00:02:55;;;;;;;;;;;;;;;15.42;35.97;99602.19;5072238;28;19920;-60
2023/10/07 00:05:26;;;;;;;;;;;;;;;15.40;36.10;99605.13;5073963;28;19920;-63
2023/10/07 00:07:55;;;;;;;;;;;;;;;15.42;36.59;99607.59;5073538;28;20373;-59
2023/10/07 00:10:25;;;;;;;;;;;;;;;15.39;36.68;99611.59;5070425;28;19931;-59
2023/10/07 00:12:51;;;;;;;;;;;;;;;15.41;36.26;99608.63;5059402;28;19916;-59
2023/10/07 00:15:17;;;;;;;;;;;;;;;15.49;36.50;99619.88;5068984;28;19912;-58
2023/10/07 00:17:43;;;;;;;;;;;;;;;15.55;36.45;99628.91;5080247;28;19923;-57
2023/10/07 00:20:11;;;;;;;;;;;;;;;15.59;36.59;99629.22;5073526;28;20483;-57
2023/10/07 00:22:41;;;;;;;;;;;;;;;15.61;36.42;99633.31;5071756;28;20440;-58
2023/10/07 00:25:07;;;;;;;;;;;;;;;15.68;36.81;99647.50;5067968;28;20386;-58
2023/10/07 00:27:38;;;;;;;;;;;;;;;15.75;35.68;99652.78;5063605;28;19943;-58
2023/10/07 00:30:13;;;;;;;;;;;;;;;15.78;36.04;99659.56;5073754;28;19955;-58
2023/10/07 00:32:39;;;;;;;;;;;;;;;15.85;35.87;99655.63;5073184;28;19921;-59
2023/10/07 00:35:06;;;;;;;;;;;;;;;15.90;36.40;99671.16;5072223;28;20011;-59
2023/10/07 00:37:33;;;;;;;;;;;;;;;15.91;36.59;99674.66;5073558;28;20430;-61
2023/10/07 00:40:00;;;;;;;;;;;;;;;15.92;36.79;99676.31;5071482;28;19947;-61
2023/10/07 00:42:26;;;;;;;;;;;;;;;15.94;36.24;99674.19;5072795;28;19912;-61
2023/10/07 00:44:53;;;;;;;;;;;;;;;15.90;36.14;99673.00;5073064;28;19916;-61
2023/10/07 00:47:19;;;;;;;;;;;;;;;15.86;35.90;99675.38;5071639;28;20344;-63
2023/10/07 00:49:53;;;;;;;;;;;;;;;15.79;35.99;99677.47;5073220;28;19912;-64
2023/10/07 00:52:30;;;;;;;;;;;;;;;15.68;36.17;99685.41;5071446;28;19916;-62
2023/10/07 01:00:04;;;;;;;;;;;;;;;15.40;36.17;99712.53;5072768;28;19963;-63
2023/10/07 01:02:33;;;;;;;;;;;;;;;15.35;36.57;99712.44;5072914;28;19916;-64
2023/10/07 01:05:00;;;;;;;;;;;;;;;15.31;36.68;99722.94;5066076;28;19913;-64
2023/10/07 01:07:26;;;;;;;;;;;;;;;15.28;37.32;99728.81;5072851;28;20434;-64
2023/10/07 01:10:11;;;;;;;;;;;;;;;15.25;37.35;99732.84;5077787;28;19982;-63
2023/10/07 01:12:39;;;;;;;;;;;;;;;15.23;36.97;99744.94;5053007;28;19924;-62
2023/10/07 01:15:11;;;;;;;;;;;;;;;15.18;36.97;99745.69;5052575;28;19913;-62
2023/10/07 01:17:40;;;;;;;;;;;;;;;15.12;37.04;99746.66;5075065;28;19913;-65
2023/10/07 01:20:08;;;;;;;;;;;;;;;15.07;37.01;99749.25;5072397;28;19975;-67
2023/10/07 01:22:36;;;;;;;;;;;;;;;15.07;37.02;99762.78;5087567;28;19916;-67
2023/10/07 01:25:09;;;;;;;;;;;;;;;15.01;37.11;99769.97;5075861;28;19913;-67
2023/10/07 01:27:41;;;;;;;;;;;;;;;15.03;37.23;99783.25;5072252;28;20301;-67
2023/10/07 01:30:15;;;;;;;;;;;;;;;15.01;37.12;99788.91;5068282;28;19916;-65
2023/10/07 01:32:57;;;;;;;;;;;;;;;14.97;37.24;99792.31;5092757;28;19916;-67
2023/10/07 01:35:25;;;;;;;;;;;;;;;14.95;37.25;99794.44;5093734;28;20343;-67
2023/10/07 01:37:59;;;;;;;;;;;;;;;14.94;37.06;99792.81;5093405;28;20007;-67
2023/10/07 01:40:32;;;;;;;;;;;;;;;14.88;37.17;99808.91;5093753;28;19912;-67
2023/10/07 01:42:57;;;;;;;;;;;;;;;14.87;37.25;99814.53;5092693;28;19950;-67
2023/10/07 01:45:26;;;;;;;;;;;;;;;14.84;37.15;99818.56;5074095;28;20010;-67
2023/10/07 01:47:55;;;;;;;;;;;;;;;14.85;37.58;99816.66;5073113;28;19912;-67
2023/10/07 01:50:23;;;;;;;;;;;;;;;14.84;37.36;99820.41;5081025;28;20272;-67
2023/10/07 01:52:49;;;;;;;;;;;;;;;14.85;37.47;99838.28;5081981;28;19923;-67
2023/10/07 01:55:14;;;;;;;;;;;;;;;14.86;37.29;99843.47;5054578;28;20288;-67
2023/10/07 01:57:44;;;;;;;;;;;;;;;14.82;37.40;99842.31;5073273;28;19919;-67
2023/10/07 02:00:11;;;;;;;;;;;;;;;14.79;37.21;99850.88;5073116;28;19917;-67
2023/10/07 02:02:48;;;;;;;;;;;;;;;14.74;37.18;99864.28;5073175;28;19913;-67
2023/10/07 02:05:13;;;;;;;;;;;;;;;14.71;37.23;99872.88;5073286;28;19917;-67
2023/10/07 02:07:39;;;;;;;;;;;;;;;14.66;37.46;99876.25;5073397;28;19913;-67
2023/10/07 02:10:04;;;;;;;;;;;;;;;14.62;36.85;99882.41;5075750;28;19924;-67
2023/10/07 02:12:32;;;;;;;;;;;;;;;14.61;37.09;99894.25;5077031;28;19912;-67
2023/10/07 02:15:03;;;;;;;;;;;;;;;14.57;36.81;99893.88;5076886;28;19991;-67
2023/10/07 02:17:28;;;;;;;;;;;;;;;14.50;36.70;99910.19;5058829;28;19912;-67
2023/10/07 02:19:55;;;;;;;;;;;;;;;14.45;36.72;99912.78;5076620;28;19919;-67
2023/10/07 02:22:22;;;;;;;;;;;;;;;14.44;36.97;99919.22;5076657;28;19919;-67
2023/10/07 02:25:02;;;;;;;;;;;;;;;14.39;36.80;99927.19;5076664;28;20360;-67
2023/10/07 02:27:28;;;;;;;;;;;;;;;14.36;36.75;99930.38;5076930;28;20012;-67
2023/10/07 02:29:57;;;;;;;;;;;;;;;14.30;36.71;99939.38;5076174;28;19923;-67
2023/10/07 02:32:22;;;;;;;;;;;;;;;14.32;36.53;99934.59;5076544;28;19912;-67
2023/10/07 02:34:57;;;;;;;;;;;;;;;14.27;36.82;99932.56;5076353;28;19920;-67
2023/10/07 02:37:25;;;;;;;;;;;;;;;14.11;36.82;99930.53;5096460;28;19912;-67
2023/10/07 02:39:56;;;;;;;;;;;;;;;14.03;37.33;99953.28;5092339;28;20364;-67
2023/10/07 02:42:21;;;;;;;;;;;;;;;14.04;36.87;99954.09;5076084;28;19912;-67
2023/10/07 02:44:51;;;;;;;;;;;;;;;14.00;37.35;99959.13;5076469;28;20007;-67
2023/10/07 02:47:18;;;;;;;;;;;;;;;13.96;37.05;99974.13;5076431;28;20360;-67
2023/10/07 02:49:49;;;;;;;;;;;;;;;13.95;37.04;99972.50;5076248;28;20003;-67
2023/10/07 02:52:16;;;;;;;;;;;;;;;13.91;37.03;99974.84;5076139;28;19970;-67
2023/10/07 02:54:42;;;;;;;;;;;;;;;13.87;37.18;99984.44;5075289;28;19919;-67
2023/10/07 02:57:09;;;;;;;;;;;;;;;13.83;36.56;99987.81;5058144;28;19912;-67
2023/10/07 02:59:36;;;;;;;;;;;;;;;13.83;36.11;99979.72;5075807;28;19920;-67
2023/10/07 03:02:12;;;;;;;;;;;;;;;13.80;36.29;99994.50;5068308;28;19963;-67
2023/10/07 03:04:42;;;;;;;;;;;;;;;13.80;35.45;99999.06;5055958;28;20007;-66
2023/10/07 03:07:16;;;;;;;;;;;;;;;13.73;36.45;100009.94;5055802;28;19913;-67
2023/10/07 03:09:55;;;;;;;;;;;;;;;13.68;36.22;100001.69;5055584;28;19924;-67
2023/10/07 03:12:30;;;;;;;;;;;;;;;13.64;36.18;100008.59;5055797;28;19916;-67
2023/10/07 03:15:04;;;;;;;;;;;;;;;13.59;36.34;100013.84;5084603;28;19915;-67
2023/10/07 03:17:39;;;;;;;;;;;;;;;13.53;36.32;100029.03;5079938;28;19938;-67
2023/10/07 03:21:00;;;;;;;;;;;;;;;13.43;36.44;100024.19;5056998;28;20030;-67
2023/10/07 03:28:18;;;;;;;;;;;;;;;13.36;36.72;100040.41;5095581;28;19998;-67
2023/10/07 03:30:47;;;;;;;;;;;;;;;13.30;36.33;100041.31;5095804;28;19920;-67
2023/10/07 03:33:15;;;;;;;;;;;;;;;13.26;36.51;100045.47;5095634;28;19919;-67
2023/10/07 03:38:25;;;;;;;;;;;;;;;13.14;35.97;100053.44;5075619;28;19913;-67
2023/10/07 03:40:54;;;;;;;;;;;;;;;13.12;35.93;100052.84;5075170;28;19923;-67
2023/10/07 03:43:19;;;;;;;;;;;;;;;13.08;36.06;100051.63;5074907;28;19913;-67
2023/10/07 03:45:45;;;;;;;;;;;;;;;13.14;35.67;100058.00;5074847;28;19918;-67
2023/10/07 03:48:23;;;;;;;;;;;;;;;13.12;35.90;100058.22;5075306;28;19912;-67
2023/10/07 03:51:08;;;;;;;;;;;;;;;13.06;34.59;100066.38;5075256;28;19922;-67
2023/10/07 03:53:44;;;;;;;;;;;;;;;13.09;35.27;100071.31;5075702;28;19943;-67
2023/10/07 03:56:14;;;;;;;;;;;;;;;13.08;34.64;100077.78;5075520;28;19916;-67
2023/10/07 03:58:41;;;;;;;;;;;;;;;13.02;34.81;100079.47;5057410;28;20400;-67
2023/10/07 04:01:22;;;;;;;;;;;;;;;12.98;34.30;100080.94;5074776;28;19912;-67
2023/10/07 04:03:49;;;;;;;;;;;;;;;12.95;35.34;100076.00;5055581;28;19913;-67
2023/10/07 04:06:17;;;;;;;;;;;;;;;12.88;34.87;100092.22;5055097;28;19913;-66
2023/10/07 04:08:45;;;;;;;;;;;;;;;12.85;34.89;100089.97;5054852;28;19924;-66
2023/10/07 04:11:16;;;;;;;;;;;;;;;12.84;34.96;100101.78;5068897;28;19985;-66
2023/10/07 04:13:43;;;;;;;;;;;;;;;12.83;34.90;100110.91;5057090;28;19939;-66
2023/10/07 04:16:22;;;;;;;;;;;;;;;12.84;35.08;100111.75;5074697;28;19913;-66
2023/10/07 04:18:47;;;;;;;;;;;;;;;12.87;34.73;100112.13;5075059;28;19919;-66
2023/10/07 04:21:13;;;;;;;;;;;;;;;12.87;35.14;100125.63;5084489;28;20334;-66
2023/10/07 04:23:43;;;;;;;;;;;;;;;12.89;34.75;100115.44;5094839;28;19919;-66
2023/10/07 04:26:10;;;;;;;;;;;;;;;12.89;34.56;100118.13;5094752;28;19912;-66
2023/10/07 04:28:36;;;;;;;;;;;;;;;12.87;34.55;100120.22;5095260;28;20057;-66
2023/10/07 04:31:09;;;;;;;;;;;;;;;12.85;34.77;100130.41;5094891;28;20369;-67
2023/10/07 04:33:40;;;;;;;;;;;;;;;12.77;34.32;100130.63;5061913;28;20074;-67
2023/10/07 04:36:10;;;;;;;;;;;;;;;12.69;34.52;100139.00;5074259;28;19919;-67
2023/10/07 04:38:52;;;;;;;;;;;;;;;12.64;34.56;100146.88;5074363;28;19961;-67
2023/10/07 04:44:20;;;;;;;;;;;;;;;12.54;34.87;100145.47;5074041;28;19912;-67
2023/10/07 04:46:55;;;;;;;;;;;;;;;12.50;35.08;100151.50;5074350;28;19912;-67
2023/10/07 04:49:23;;;;;;;;;;;;;;;12.45;35.01;100152.16;5074150;28;19913;-66
2023/10/07 04:51:55;;;;;;;;;;;;;;;12.39;35.21;100144.94;5074377;28;19917;-67
2023/10/07 04:54:20;;;;;;;;;;;;;;;12.34;35.67;100148.25;5055499;28;19912;-67
2023/10/07 04:56:53;;;;;;;;;;;;;;;12.32;35.88;100154.91;5074144;28;20269;-67
2023/10/07 04:59:19;;;;;;;;;;;;;;;12.27;36.15;100154.69;5074316;28;19912;-66
2023/10/07 05:01:48;;;;;;;;;;;;;;;12.29;36.04;100155.31;5073799;28;20261;-66
2023/10/07 05:04:15;;;;;;;;;;;;;;;12.30;35.56;100151.59;5074085;28;19920;-67
2023/10/07 05:06:42;;;;;;;;;;;;;;;12.29;35.69;100160.69;5073865;28;19962;-66
2023/10/07 05:09:17;;;;;;;;;;;;;;;12.28;35.44;100177.91;5073547;28;20007;-66
2023/10/07 05:11:45;;;;;;;;;;;;;;;12.23;35.38;100170.44;5073873;28;19974;-67
2023/10/07 05:14:22;;;;;;;;;;;;;;;12.16;35.13;100173.16;5073822;28;20135;-66
2023/10/07 05:16:47;;;;;;;;;;;;;;;12.10;35.23;100174.00;5055963;28;19924;-67
2023/10/07 05:19:19;;;;;;;;;;;;;;;12.04;34.75;100188.31;5073974;28;19916;-66
2023/10/07 05:21:58;;;;;;;;;;;;;;;12.00;35.32;100195.16;5073684;28;19920;-66
2023/10/07 05:24:28;;;;;;;;;;;;;;;12.00;35.79;100197.84;5073731;28;19920;-66
2023/10/07 05:26:54;;;;;;;;;;;;;;;12.04;35.48;100207.16;5073701;28;19955;-67
2023/10/07 05:29:20;;;;;;;;;;;;;;;12.06;35.50;100206.94;5073880;28;19912;-67
2023/10/07 05:31:45;;;;;;;;;;;;;;;12.08;35.96;100218.31;5074005;28;20357;-67
2023/10/07 05:34:11;;;;;;;;;;;;;;;12.17;36.43;100222.44;5073798;28;20340;-67
2023/10/07 05:36:38;;;;;;;;;;;;;;;12.14;36.35;100223.69;5073887;28;19912;-67
2023/10/07 05:39:05;;;;;;;;;;;;;;;12.16;36.52;100235.06;5073831;28;19920;-67
2023/10/07 05:41:32;;;;;;;;;;;;;;;12.15;36.66;100230.72;5073526;28;19912;-67
2023/10/07 05:43:57;;;;;;;;;;;;;;;12.10;36.65;100233.22;5075024;28;19912;-67
2023/10/07 05:46:22;;;;;;;;;;;;;;;12.08;36.01;100243.38;5077855;28;20384;-68
2023/10/07 05:48:48;;;;;;;;;;;;;;;12.05;36.27;100230.31;5077693;28;19919;-67
2023/10/07 05:51:13;;;;;;;;;;;;;;;12.02;36.11;100238.84;5077361;28;19963;-67
2023/10/07 05:53:42;;;;;;;;;;;;;;;12.03;35.69;100245.84;5077630;28;19973;-67
2023/10/07 05:56:09;;;;;;;;;;;;;;;12.07;35.87;100246.25;5077775;28;20253;-67
2023/10/07 05:58:35;;;;;;;;;;;;;;;12.12;35.77;100243.78;5077354;28;19975;-67
2023/10/07 06:01:01;;;;;;;;;;;;;;;12.18;35.19;100245.63;5077321;28;19913;-67
2023/10/07 06:03:30;;;;;;;;;;;;;;;12.23;35.56;100256.59;5077438;28;19919;-67
2023/10/07 06:05:57;;;;;;;;;;;;;;;12.19;34.67;100256.19;5077313;28;19912;-66
2023/10/07 06:08:25;;;;;;;;;;;;;;;12.21;34.92;100258.69;5077330;28;19920;-67
2023/10/07 06:10:52;;;;;;;;;;;;;;;12.23;35.33;100269.25;5077641;28;19920;-67
2023/10/07 06:13:18;;;;;;;;;;;;;;;12.21;35.22;100269.44;5083836;28;19970;-67
2023/10/07 06:15:45;;;;;;;;;;;;;;;12.22;35.85;100271.13;5096356;28;19916;-67
2023/10/07 06:18:11;;;;;;;;;;;;;;;12.22;35.94;100281.03;5077277;28;19923;-67
2023/10/07 06:20:46;;;;;;;;;;;;;;;12.18;35.78;100278.78;5077096;28;19913;-67
2023/10/07 06:23:15;;;;;;;;;;;;;;;12.20;35.74;100298.25;5077269;28;20003;-67
2023/10/07 06:25:50;;;;;;;;;;;;;;;12.22;36.25;100299.88;5076848;28;19916;-67
2023/10/07 06:28:24;;;;;;;;;;;;;;;12.18;35.76;100303.00;5059409;28;20280;-67
2023/10/07 06:30:51;;;;;;;;;;;;;;;12.15;36.00;100308.81;5076634;28;19917;-67
2023/10/07 06:33:19;;;;;;;;;;;;;;;12.13;36.12;100315.44;5076624;28;20311;-67
2023/10/07 06:35:44;;;;;;;;;;;;;;;12.12;36.35;100319.16;5076442;28;19951;-67
2023/10/07 06:38:11;;;;;;;;;;;;;;;12.14;36.21;100328.66;5076292;28;19955;-67
2023/10/07 06:40:36;;;;;;;;;;;;;;;12.19;36.06;100333.44;5076389;28;19917;-67
2023/10/07 06:43:02;;;;;;;;;;;;;;;12.22;36.15;100337.56;5076371;28;20344;-67
2023/10/07 06:45:36;;;;;;;;;;;;;;;12.29;36.09;100335.72;5076461;28;20289;-67
2023/10/07 06:48:03;;;;;;;;;;;;;;;12.31;36.53;100339.88;5056045;28;19913;-67
2023/10/07 06:50:28;;;;;;;;;;;;;;;12.36;36.50;100341.94;5056496;28;20016;-67
2023/10/07 06:52:55;;;;;;;;;;;;;;;12.46;36.16;100345.03;5068708;28;19982;-67
2023/10/07 06:55:23;;;;;;;;;;;;;;;12.52;36.07;100354.97;5074703;28;19912;-67
2023/10/07 06:57:53;;;;;;;;;;;;;;;12.57;35.89;100348.94;5076620;28;19919;-67
2023/10/07 07:00:23;;;;;;;;;;;;;;;12.62;35.83;100357.22;5058543;28;20002;-67
2023/10/07 07:02:57;;;;;;;;;;;;;;;12.62;35.54;100364.50;5062568;28;20393;-67
2023/10/07 07:05:23;;;;;;;;;;;;;;;12.66;35.86;100374.63;5056439;28;19962;-67
2023/10/07 07:07:54;;;;;;;;;;;;;;;12.70;35.93;100377.72;5056431;28;19995;-67
2023/10/07 07:10:30;;;;;;;;;;;;;;;12.75;35.91;100391.41;5066354;28;19928;-67
2023/10/07 07:13:04;;;;;;;;;;;;;;;12.82;36.01;100399.50;5076135;28;19951;-67
2023/10/07 07:15:36;;;;;;;;;;;;;;;12.87;36.04;100411.31;5076512;28;19999;-66
2023/10/07 07:18:39;;;;;;;;;;;;;;;12.97;35.91;100414.38;5076325;28;20005;-66
2023/10/07 07:23:24;;;;;;;;;;;;;;;13.17;35.46;100422.41;5075706;28;19920;-67
2023/10/07 07:25:51;;;;;;;;;;;;;;;13.21;35.31;100430.09;5076421;28;20030;-67
2023/10/07 07:28:17;;;;;;;;;;;;;;;13.27;35.03;100435.44;5076287;28;20037;-66
2023/10/07 07:30:44;;;;;;;;;;;;;;;13.33;34.39;100431.97;5076252;28;20382;-66
2023/10/07 07:33:15;;;;;;;;;;;;;;;13.35;33.88;100442.50;5076478;28;19923;-66
2023/10/07 07:35:41;;;;;;;;;;;;;;;13.43;34.68;100438.75;5075831;28;19916;-66
2023/10/07 07:38:43;;;;;;;;;;;;;;;13.48;34.05;100453.28;5076039;28;19919;-67
2023/10/07 07:41:03;;;;;;;;;;;;;;;13.62;35.04;100453.22;5074618;28;20006;-67
2023/10/07 07:43:28;;;;;;;;;;;;;;;13.67;34.89;100459.63;5075283;28;19913;-67
2023/10/07 07:46:08;;;;;;;;;;;;;;;13.78;34.69;100451.88;5075357;28;19932;-67
2023/10/07 07:48:36;;;;;;;;;;;;;;;13.90;34.60;100444.78;5057588;28;19960;-67
2023/10/07 07:51:01;;;;;;;;;;;;;;;14.00;34.65;100452.41;5074846;28;19912;-66
2023/10/07 07:53:29;;;;;;;;;;;;;;;14.07;33.68;100458.59;5074838;28;19923;-67
2023/10/07 07:55:56;;;;;;;;;;;;;;;14.16;33.59;100451.88;5056346;28;20003;-67
2023/10/07 07:58:23;;;;;;;;;;;;;;;14.23;33.94;100465.38;5075145;28;19943;-66
2023/10/07 08:00:58;;;;;;;;;;;;;;;14.35;33.38;100457.38;5075047;28;20320;-66
2023/10/07 08:03:24;;;;;;;;;;;;;;;14.48;33.68;100455.41;5056865;28;19916;-67
2023/10/07 08:05:49;;;;;;;;;;;;;;;14.53;32.97;100450.16;5082040;28;19922;-67
2023/10/07 08:08:28;;;;;;;;;;;;;;;14.56;32.63;100464.28;5094413;28;19912;-67
2023/10/07 08:10:55;;;;;;;;;;;;;;;14.69;31.84;100469.59;5095620;28;19920;-67
2023/10/07 08:13:23;;;;;;;;;;;;;;;14.74;32.66;100469.78;5095080;28;19912;-67
2023/10/07 08:15:51;;;;;;;;;;;;;;;14.80;32.66;100478.88;5093681;28;19912;-67
2023/10/07 08:18:22;;;;;;;;;;;;;;;14.81;32.11;100483.25;5074685;28;19919;-67
2023/10/07 08:20:48;;;;;;;;;;;;;;;14.90;31.23;100482.75;5074803;28;19912;-67
2023/10/07 08:23:23;;;;;;;;;;;;;;;14.98;31.92;100488.94;5074752;28;20330;-67
2023/10/07 08:25:49;;;;;;;;;;;;;;;14.98;31.55;100480.81;5074551;28;19912;-67
2023/10/07 08:31:13;;;;;;;;;;;;;;;15.00;30.99;100487.63;5045659;28;20404;-67
2023/10/07 08:33:38;;;;;;;;;;;;;;;14.99;30.80;100499.53;5074605;28;19912;-67
2023/10/07 08:36:07;;;;;;;;;;;;;;;15.01;31.31;100500.13;5074499;28;20280;-67
2023/10/07 08:38:40;;;;;;;;;;;;;;;15.06;31.50;100508.41;5074129;28;19919;-67
2023/10/07 08:41:07;;;;;;;;;;;;;;;15.05;31.11;100514.84;5074323;28;20349;-67
2023/10/07 08:43:37;;;;;;;;;;;;;;;15.05;32.07;100517.56;5074410;28;19916;-67
2023/10/07 08:46:03;;;;;;;;;;;;;;;15.07;31.48;100518.16;5074474;28;19912;-67
2023/10/07 08:48:30;;;;;;;;;;;;;;;14.99;30.94;100518.47;5074213;28;20323;-67
2023/10/07 08:50:55;;;;;;;;;;;;;;;14.98;31.45;100518.66;5074008;28;19917;-67
2023/10/07 08:53:24;;;;;;;;;;;;;;;14.99;30.58;100523.00;5074127;28;19919;-67
2023/10/07 08:56:00;;;;;;;;;;;;;;;14.97;31.30;100527.81;5073538;28;19913;-67
2023/10/07 08:58:29;;;;;;;;;;;;;;;14.86;29.56;100532.91;5074180;28;20362;-67
2023/10/07 09:00:58;;;;;;;;;;;;;;;14.92;31.32;100536.59;5074002;28;19924;-67
2023/10/07 09:03:28;;;;;;;;;;;;;;;15.01;31.11;100532.59;5091582;28;19920;-67
2023/10/07 09:05:59;;;;;;;;;;;;;;;14.97;30.58;100525.13;5094326;28;20061;-67
2023/10/07 09:08:25;;;;;;;;;;;;;;;14.98;30.17;100529.50;5089906;28;19920;-67
2023/10/07 09:10:51;;;;;;;;;;;;;;;15.10;31.49;100525.03;5074578;28;20342;-66
2023/10/07 09:13:26;;;;;;;;;;;;;;;15.08;30.78;100533.34;5072760;28;20097;-67
2023/10/07 09:15:53;;;;;;;;;;;;;;;15.11;30.77;100526.66;5053538;28;20376;-67
2023/10/07 09:18:22;;;;;;;;;;;;;;;15.17;31.13;100527.66;5053161;28;19913;-67
2023/10/07 09:20:50;;;;;;;;;;;;;;;15.09;30.47;100528.75;5053403;28;19919;-67
2023/10/07 09:23:19;;;;;;;;;;;;;;;15.21;30.73;100531.56;5053851;28;19912;-67
2023/10/07 09:25:46;;;;;;;;;;;;;;;15.22;29.44;100539.47;5053567;28;19913;-68
2023/10/07 09:28:13;;;;;;;;;;;;;;;15.31;29.86;100533.78;5053382;28;19956;-67
2023/10/07 09:33:14;;;;;;;;;;;;;;;15.27;29.42;100533.41;5053538;28;19913;-67
2023/10/07 09:35:43;;;;;;;;;;;;;;;15.35;29.29;100537.69;5053736;28;19920;-67
2023/10/07 09:38:12;;;;;;;;;;;;;;;15.33;28.21;100546.03;5054200;28;20007;-67
2023/10/07 09:43:26;;;;;;;;;;;;;;;15.49;29.27;100547.34;5053814;28;19920;-68
2023/10/07 09:45:58;;;;;;;;;;;;;;;15.63;29.75;100548.00;5053531;28;19919;-67
2023/10/07 09:48:33;;;;;;;;;;;;;;;15.61;29.04;100547.41;5053613;28;19919;-67
2023/10/07 09:50:58;;;;;;;;;;;;;;;15.78;28.55;100550.38;5053296;28;19963;-67
2023/10/07 09:53:50;;;;;;;;;;;;;;;15.83;28.61;100551.34;5053487;28;19916;-67
2023/10/07 09:56:38;;;;;;;;;;;;;;;15.96;28.10;100558.50;5015135;28;19999;-67
2023/10/07 09:59:17;;;;;;;;;;;;;;;16.00;26.59;100556.16;5042782;28;19935;-67
2023/10/07 10:01:54;;;;;;;;;;;;;;;16.21;28.30;100552.97;5068586;28;19971;-67
2023/10/07 10:04:36;;;;;;;;;;;;;;;16.30;27.82;100558.88;5035417;28;19920;-67
2023/10/07 10:07:07;;;;;;;;;;;;;;;16.40;27.67;100558.31;5053415;28;19936;-67
2023/10/07 10:18:02;;;;;;;;;;;;;;;17.10;28.22;100559.59;5059103;28;19913;-68
2023/10/07 10:20:42;;;;;;;;;;;;;;;17.34;27.22;100555.00;5038815;28;19913;-68
2023/10/07 10:23:18;;;;;;;;;;;;;;;17.54;28.16;100550.03;5073221;28;19919;-68
2023/10/07 10:25:48;;;;;;;;;;;;;;;17.59;26.54;100562.91;5073163;28;19916;-68
2023/10/07 10:28:20;;;;;;;;;;;;;;;17.74;27.04;100565.13;5072888;28;19916;-68
2023/10/07 10:30:46;;;;;;;;;;;;;;;17.95;26.83;100560.97;5075539;28;19962;-68
2023/10/07 10:33:19;;;;;;;;;;;;;;;18.21;28.31;100561.50;5076500;28;19912;-68
2023/10/07 10:35:48;;;;;;;;;;;;;;;18.36;28.25;100562.59;5059836;28;19912;-68
2023/10/07 10:38:13;;;;;;;;;;;;;;;18.55;25.98;100570.56;5076919;28;19912;-68
2023/10/07 10:40:39;;;;;;;;;;;;;;;18.33;22.65;100563.13;5059401;28;19919;-68
2023/10/07 10:43:05;;;;;;;;;;;;;;;18.54;25.95;100564.31;5076281;28;19913;-68
2023/10/07 10:45:31;;;;;;;;;;;;;;;18.80;26.06;100563.94;5076722;28;20277;-68
2023/10/07 10:48:00;;;;;;;;;;;;;;;18.95;25.89;100559.59;5058897;28;19912;-68
2023/10/07 10:50:29;;;;;;;;;;;;;;;19.07;25.92;100559.50;5076521;28;19912;-68
2023/10/07 10:52:55;;;;;;;;;;;;;;;19.08;25.56;100558.44;5076329;28;20021;-68
2023/10/07 10:55:26;;;;;;;;;;;;;;;19.12;26.07;100564.22;5088938;28;19916;-68
2023/10/07 10:57:54;;;;;;;;;;;;;;;19.20;24.39;100552.91;5096521;28;19935;-68
2023/10/07 11:00:21;;;;;;;;;;;;;;;19.19;25.02;100569.53;5078300;28;20349;-68
2023/10/07 11:02:48;;;;;;;;;;;;;;;19.07;22.45;100573.13;5083969;28;19992;-66
2023/10/07 11:05:15;;;;;;;;;;;;;;;18.99;22.82;100578.19;5077451;28;19913;-66
2023/10/07 11:07:42;;;;;;;;;;;;;;;18.95;21.64;100575.13;5077143;28;19919;-66
2023/10/07 11:10:08;;;;;;;;;;;;;;;19.08;24.39;100579.41;5077084;28;19921;-66
2023/10/07 11:12:36;;;;;;;;;;;;;;;19.25;22.82;100580.22;5076921;28;20304;-66
2023/10/07 11:15:13;;;;;;;;;;;;;;;19.32;22.77;100577.34;5076753;28;19918;-66
2023/10/07 11:17:51;;;;;;;;;;;;;;;19.59;24.78;100573.91;5076712;28;19919;-66
2023/10/07 11:20:19;;;;;;;;;;;;;;;19.59;23.64;100580.16;5076894;28;20281;-66
2023/10/07 11:22:45;;;;;;;;;;;;;;;19.78;22.51;100566.28;5076784;28;19920;-67
2023/10/07 11:25:14;;;;;;;;;;;;;;;19.90;22.78;100565.09;5076227;28;20289;-67
2023/10/07 11:27:42;;;;;;;;;;;;;;;20.12;24.04;100583.34;5075823;28;19959;-67
2023/10/07 11:30:11;;;;;;;;;;;;;;;20.22;23.97;100577.19;5076095;28;20281;-66
2023/10/07 11:32:39;;;;;;;;;;;;;;;20.41;23.98;100577.66;5076143;28;19917;-67
2023/10/07 11:35:19;;;;;;;;;;;;;;;20.47;22.84;100582.94;5076515;28;20141;-67
2023/10/07 11:37:57;;;;;;;;;;;;;;;20.64;23.00;100579.31;5041912;28;19916;-67
2023/10/07 11:40:23;;;;;;;;;;;;;;;20.87;22.28;100580.88;5075819;28;20017;-68
2023/10/07 11:42:49;;;;;;;;;;;;;;;20.99;22.69;100587.00;5074657;28;19959;-67
2023/10/07 11:45:16;;;;;;;;;;;;;;;21.11;23.83;100586.81;5074803;28;19963;-68
2023/10/07 11:47:42;;;;;;;;;;;;;;;21.27;23.16;100596.78;5075246;28;19913;-56
2023/10/07 11:50:08;;;;;;;;;;;;;;;21.21;21.86;100595.13;5074956;28;20281;-53
2023/10/07 11:52:37;;;;;;;;;;;;;;;21.29;23.25;100593.81;5074809;28;19920;-56
2023/10/07 11:55:07;;;;;;;;;;;;;;;21.42;23.56;100593.34;5073832;28;20034;-57
2023/10/07 11:57:33;;;;;;;;;;;;;;;21.14;21.20;100588.22;5072338;28;19919;-57
2023/10/07 12:00:00;;;;;;;;;;;;;;;21.12;19.94;100599.41;5074721;28;19913;-68
2023/10/07 12:02:26;;;;;;;;;;;;;;;21.28;23.05;100592.13;5069243;28;19912;-68
2023/10/07 12:04:52;;;;;;;;;;;;;;;21.29;21.97;100593.81;5074960;28;19991;-69
2023/10/07 12:07:18;;;;;;;;;;;;;;;21.54;24.03;100595.91;5074949;28;19954;-68
2023/10/07 12:09:47;;;;;;;;;;;;;;;21.63;22.95;100593.50;5074831;28;20304;-67
2023/10/07 12:12:12;;;;;;;;;;;;;;;21.43;22.64;100600.47;5075184;28;19932;-64
2023/10/07 12:14:38;;;;;;;;;;;;;;;21.46;21.26;100599.94;5074905;28;20364;-67
2023/10/07 12:17:04;;;;;;;;;;;;;;;21.64;23.44;100604.19;5074558;28;19956;-70
2023/10/07 12:19:33;;;;;;;;;;;;;;;21.53;22.76;100604.38;5074423;28;19981;-67
2023/10/07 12:21:59;;;;;;;;;;;;;;;21.73;22.95;100607.25;5074772;28;20003;-69
2023/10/07 12:24:24;;;;;;;;;;;;;;;21.98;24.37;100601.06;5074280;28;20365;-69
2023/10/07 12:26:55;;;;;;;;;;;;;;;22.23;24.74;100600.38;5074695;28;19913;-69
2023/10/07 12:29:20;;;;;;;;;;;;;;;22.26;19.94;100595.47;5057380;28;20404;-69
2023/10/07 12:31:47;;;;;;;;;;;;;;;22.34;20.94;100594.94;5074086;28;19916;-69
2023/10/07 12:34:15;;;;;;;;;;;;;;;22.51;23.46;100587.34;5074439;28;19917;-68
2023/10/07 12:36:40;;;;;;;;;;;;;;;22.78;23.22;100599.97;5074354;28;19917;-69
2023/10/07 12:39:13;;;;;;;;;;;;;;;22.75;23.31;100589.53;5074914;28;19919;-69
2023/10/07 12:41:39;;;;;;;;;;;;;;;22.81;22.63;100585.75;5058383;28;19920;-71
2023/10/07 12:44:08;;;;;;;;;;;;;;;22.74;19.80;100580.53;5069044;28;19916;-70
2023/10/07 12:46:34;;;;;;;;;;;;;;;22.63;21.33;100575.31;5068934;28;19916;-69
2023/10/07 12:49:03;;;;;;;;;;;;;;;23.02;22.30;100593.97;5057259;28;20328;-63
2023/10/07 12:51:31;;;;;;;;;;;;;;;23.12;21.40;100575.66;5072904;28;19921;-63
2023/10/07 12:53:58;;;;;;;;;;;;;;;23.31;18.90;100581.38;5071725;28;19920;-64
2023/10/07 12:56:26;;;;;;;;;;;;;;;23.43;21.72;100578.34;5078183;28;19999;-61
2023/10/07 12:58:53;;;;;;;;;;;;;;;23.55;23.10;100542.38;5055099;28;20457;-63
2023/10/07 13:01:19;;;;;;;;;;;;;;;24.25;21.35;100590.97;5072996;28;19952;-63
2023/10/07 13:03:44;;;;;;;;;;;;;;;24.41;19.93;100589.00;5069502;28;20288;-64
2023/10/07 13:06:10;;;;;;;;;;;;;;;24.50;21.63;100590.84;5073149;28;19919;-63
2023/10/07 13:08:39;;;;;;;;;;;;;;;24.72;20.14;100587.72;5077589;28;19920;-63
2023/10/07 13:11:14;;;;;;;;;;;;;;;24.79;18.75;100603.84;5093795;28;19920;-64
2023/10/07 13:13:39;;;;;;;;;;;;;;;24.87;17.70;100603.28;5092419;28;19919;-63
2023/10/07 13:16:09;;;;;;;;;;;;;;;24.95;17.79;100609.25;5071977;28;19912;-63
2023/10/07 13:18:35;;;;;;;;;;;;;;;24.65;19.20;100608.38;5055149;28;19920;-62
2023/10/07 13:21:07;;;;;;;;;;;;;;;24.41;18.01;100608.22;5076520;28;19919;-63
2023/10/07 13:23:38;;;;;;;;;;;;;;;24.24;18.89;100619.56;5083192;28;19919;-63
2023/10/07 13:26:04;;;;;;;;;;;;;;;23.87;18.89;100624.34;5077484;28;19970;-64